createdAt,value
2019-05-14T00:02:05.542Z,100160.38
2019-05-14T00:04:32.046Z,100156.08
2019-05-14T00:06:58.546Z,100156.22
2019-05-14T00:09:26.074Z,100147.49
2019-05-14T00:11:52.520Z,100145.91
2019-05-14T00:14:19.027Z,100152.80
2019-05-14T00:16:45.530Z,100151.08
2019-05-14T00:19:13.075Z,100147.20
2019-05-14T00:21:39.586Z,100146.33
2019-05-14T00:24:06.042Z,100145.37
2019-05-14T00:26:32.643Z,100139.16
2019-05-14T00:28:59.115Z,100138.23
2019-05-14T00:31:25.712Z,100142.86
2019-05-14T00:33:52.192Z,100143.77
2019-05-14T00:36:18.678Z,100146.55
2019-05-14T00:38:45.117Z,100138.45
2019-05-14T00:41:11.625Z,100135.73
2019-05-14T00:43:38.371Z,100136.20
2019-05-14T00:46:05.903Z,100140.59
2019-05-14T00:48:32.412Z,100132.91
2019-05-14T00:50:59.216Z,100143.89
2019-05-14T00:53:25.675Z,100142.63
2019-05-14T00:55:52.162Z,100139.98
2019-05-14T00:58:18.891Z,100139.88
2019-05-14T01:00:45.381Z,100141.77
2019-05-14T01:03:11.846Z,100140.08
2019-05-14T01:05:38.324Z,100142.27
2019-05-14T01:08:04.915Z,100139.66
2019-05-14T01:10:31.664Z,100133.72
2019-05-14T01:12:58.156Z,100142.28
2019-05-14T01:15:24.894Z,100139.55
2019-05-14T01:17:51.818Z,100138.78
2019-05-14T01:20:21.141Z,100137.19
2019-05-14T01:22:47.122Z,100134.45
2019-05-14T01:25:13.722Z,100135.64
2019-05-14T01:27:41.445Z,100139.30
2019-05-14T01:30:08.683Z,100131.31
2019-05-14T01:32:35.443Z,100128.47
2019-05-14T01:35:02.217Z,100126.38
2019-05-14T01:37:30.761Z,100129.23
2019-05-14T01:39:57.599Z,100127.05
2019-05-14T01:42:24.346Z,100127.05
2019-05-14T01:44:51.924Z,100124.17
2019-05-14T01:47:18.641Z,100129.17
2019-05-14T01:49:45.160Z,100126.42
2019-05-14T01:52:11.648Z,100124.24
2019-05-14T01:54:38.117Z,100122.73
2019-05-14T01:57:04.603Z,100125.52
2019-05-14T01:59:32.187Z,100130.33
2019-05-14T02:01:58.935Z,100125.55
2019-05-14T02:04:25.434Z,100122.84
2019-05-14T02:06:51.892Z,100120.30
2019-05-14T02:09:18.496Z,100122.02
2019-05-14T02:11:44.938Z,100129.44
2019-05-14T02:14:11.870Z,100126.13
2019-05-14T02:16:38.392Z,100129.53
2019-05-14T02:19:11.613Z,100127.73
2019-05-14T02:21:38.197Z,100122.95
2019-05-14T02:24:04.694Z,100127.12
2019-05-14T02:26:31.711Z,100126.42
2019-05-14T02:28:58.323Z,100124.63
2019-05-14T02:31:24.852Z,100127.30
2019-05-14T02:33:51.317Z,100132.24
2019-05-14T02:36:19.424Z,100119.62
2019-05-14T02:38:49.097Z,100117.09
2019-05-14T02:41:14.690Z,100115.11
2019-05-14T02:43:41.278Z,100119.92
2019-05-14T02:46:15.948Z,100116.03
2019-05-14T02:48:36.204Z,100116.06
2019-05-14T02:51:02.675Z,100103.48
2019-05-14T02:53:29.877Z,100105.86
2019-05-14T02:55:59.250Z,100102.19
2019-05-14T02:58:24.975Z,100105.59
2019-05-14T03:00:52.510Z,100103.10
2019-05-14T03:03:19.434Z,100099.77
2019-05-14T03:05:49.254Z,100099.01
2019-05-14T03:08:14.472Z,100097.78
2019-05-14T03:10:40.962Z,100096.52
2019-05-14T03:13:09.555Z,100102.52
2019-05-14T03:15:38.851Z,100100.73
2019-05-14T03:18:04.380Z,100105.58
2019-05-14T03:20:32.010Z,100106.42
2019-05-14T03:23:05.275Z,100102.41
2019-05-14T03:25:30.118Z,100107.53
2019-05-14T03:27:59.840Z,100101.30
2019-05-14T03:30:25.437Z,100102.75
2019-05-14T03:32:53.497Z,100103.73
2019-05-14T03:35:23.390Z,100111.00
2019-05-14T03:37:49.683Z,100106.76
2019-05-14T03:40:19.449Z,100101.48
2019-05-14T03:42:48.786Z,100101.22
2019-05-14T03:45:14.563Z,100096.59
2019-05-14T03:47:41.264Z,100105.31
2019-05-14T03:50:10.252Z,100091.39
2019-05-14T03:52:39.670Z,100096.59
2019-05-14T03:55:05.309Z,100091.74
2019-05-14T03:57:31.817Z,100099.00
2019-05-14T03:59:59.659Z,100095.75
2019-05-14T04:02:29.699Z,100096.30
2019-05-14T04:04:59.769Z,100095.00
2019-05-14T04:07:25.207Z,100101.49
2019-05-14T04:09:52.267Z,100098.05
2019-05-14T04:12:20.709Z,100105.35
2019-05-14T04:14:50.384Z,100099.12
2019-05-14T04:17:31.707Z,100102.67
2019-05-14T04:19:49.916Z,100102.06
2019-05-14T04:22:19.190Z,100098.81
2019-05-14T04:24:49.681Z,100098.52
2019-05-14T04:27:16.174Z,100095.72
2019-05-14T04:29:42.670Z,100101.64
2019-05-14T04:32:09.648Z,100102.66
2019-05-14T04:34:39.367Z,100102.04
2019-05-14T04:37:05.472Z,100102.50
2019-05-14T04:39:33.083Z,100101.55
2019-05-14T04:42:00.102Z,100094.90
2019-05-14T04:44:29.474Z,100104.42
2019-05-14T04:46:55.129Z,100100.09
2019-05-14T04:49:21.857Z,100107.48
2019-05-14T04:51:50.259Z,100109.77
2019-05-14T04:54:19.475Z,100107.16
2019-05-14T04:56:45.440Z,100105.33
2019-05-14T04:59:11.893Z,100100.64
2019-05-14T05:01:40.204Z,100100.31
2019-05-14T05:04:09.582Z,100101.18
2019-05-14T05:06:35.202Z,100109.03
2019-05-14T05:09:01.912Z,100105.03
2019-05-14T05:11:29.264Z,100107.33
2019-05-14T05:13:55.830Z,100103.78
2019-05-14T05:16:23.381Z,100100.21
2019-05-14T05:18:49.932Z,100097.84
2019-05-14T05:21:16.411Z,100098.53
2019-05-14T05:23:42.867Z,100100.14
2019-05-14T05:26:09.632Z,100091.59
2019-05-14T05:28:38.891Z,100093.30
2019-05-14T05:31:04.696Z,100092.25
2019-05-14T05:33:31.239Z,100097.99
2019-05-14T05:35:59.362Z,100094.56
2019-05-14T05:38:28.965Z,100102.00
2019-05-14T05:40:56.904Z,100099.72
2019-05-14T05:43:23.096Z,100103.31
2019-05-14T05:45:50.666Z,100099.44
2019-05-14T05:48:18.773Z,100088.70
2019-05-14T05:50:48.271Z,100094.98
2019-05-14T05:53:14.060Z,100088.72
2019-05-14T05:55:40.571Z,100093.23
2019-05-14T05:58:08.690Z,100086.28
2019-05-14T06:00:39.711Z,100086.75
2019-05-14T06:03:05.687Z,100082.78
2019-05-14T06:05:32.427Z,100087.15
2019-05-14T06:07:59.200Z,100080.13
2019-05-14T06:10:25.962Z,100072.67
2019-05-14T06:12:52.698Z,100072.66
2019-05-14T06:15:19.437Z,100071.70
2019-05-14T06:17:45.908Z,100076.08
2019-05-14T06:20:12.500Z,100075.14
2019-05-14T06:22:39.247Z,100073.30
2019-05-14T06:25:10.552Z,100075.53
2019-05-14T06:27:35.277Z,100072.44
2019-05-14T06:30:03.054Z,100074.68
2019-05-14T06:32:29.584Z,100072.03
2019-05-14T06:34:56.062Z,100073.31
2019-05-14T06:37:22.587Z,100067.63
2019-05-14T06:39:49.111Z,100068.38
2019-05-14T06:42:15.578Z,100066.56
2019-05-14T06:44:42.321Z,100079.15
2019-05-14T06:47:09.429Z,100076.82
2019-05-14T06:49:38.348Z,100065.72
2019-05-14T06:52:04.594Z,100068.11
2019-05-14T06:54:31.089Z,100064.23
2019-05-14T06:56:58.294Z,100067.30
2019-05-14T06:59:24.958Z,100069.79
2019-05-14T07:01:51.442Z,100071.32
2019-05-14T07:04:18.351Z,100070.95
2019-05-14T07:06:44.866Z,100073.11
2019-05-14T07:09:11.390Z,100076.22
2019-05-14T07:11:38.797Z,100073.31
2019-05-14T07:14:08.974Z,100067.48
2019-05-14T07:16:34.293Z,100069.84
2019-05-14T07:19:01.316Z,100065.99
2019-05-14T07:21:29.179Z,100057.48
2019-05-14T07:23:55.912Z,100062.34
2019-05-14T07:26:22.371Z,100062.02
2019-05-14T07:28:49.196Z,100056.17
2019-05-14T07:31:18.400Z,100045.40
2019-05-14T07:33:44.171Z,100048.87
2019-05-14T07:36:10.610Z,100053.52
2019-05-14T07:38:39.238Z,100051.03
2019-05-14T07:41:05.555Z,100051.38
2019-05-14T07:43:32.059Z,100043.80
2019-05-14T07:45:58.549Z,100040.72
2019-05-14T07:48:25.029Z,100037.78
2019-05-14T07:50:52.223Z,100041.73
2019-05-14T07:53:19.075Z,100035.07
2019-05-14T07:55:45.554Z,100031.28
2019-05-14T07:58:12.070Z,100034.73
2019-05-14T08:00:40.176Z,100039.72
2019-05-14T08:03:08.224Z,100039.80
2019-05-14T08:05:35.046Z,100034.88
2019-05-14T08:08:01.620Z,100037.41
2019-05-14T08:10:29.003Z,100040.14
2019-05-14T08:12:55.483Z,100034.84
2019-05-14T08:15:22.564Z,100034.41
2019-05-14T08:17:49.187Z,100024.11
2019-05-14T08:20:18.322Z,100026.72
2019-05-14T08:22:44.865Z,100035.31
2019-05-14T08:25:12.560Z,100032.78
2019-05-14T08:27:39.104Z,100024.47
2019-05-14T08:30:08.106Z,100027.08
2019-05-14T08:32:35.525Z,100024.02
2019-05-14T08:35:02.281Z,100021.38
2019-05-14T08:37:28.886Z,100017.91
2019-05-14T08:39:55.388Z,100023.08
2019-05-14T08:42:21.955Z,100016.99
2019-05-14T08:44:51.436Z,100016.43
2019-05-14T08:47:18.468Z,100009.10
2019-05-14T08:49:46.753Z,100008.43
2019-05-14T08:52:16.042Z,100008.36
2019-05-14T08:54:41.737Z,100007.56
2019-05-14T08:57:09.783Z,100007.25
2019-05-14T08:59:39.663Z,100008.09
2019-05-14T09:02:06.659Z,100000.69
2019-05-14T09:04:33.623Z,100003.80
2019-05-14T09:07:00.143Z,100000.92
2019-05-14T09:09:28.713Z,99992.39
2019-05-14T09:11:55.093Z,99985.85
2019-05-14T09:14:22.042Z,99986.12
2019-05-14T09:16:51.105Z,99981.50
2019-05-14T09:19:19.195Z,99978.17
2019-05-14T09:21:45.454Z,99980.46
2019-05-14T09:24:11.999Z,99982.80
2019-05-14T09:26:39.192Z,99970.13
2019-05-14T09:29:18.294Z,99980.59
2019-05-14T09:31:34.124Z,99982.64
2019-05-14T09:34:01.120Z,99989.69
2019-05-14T09:36:29.009Z,99983.28
2019-05-14T09:38:58.205Z,99987.23
2019-05-14T09:41:27.589Z,99980.42
2019-05-14T09:43:52.715Z,99968.16
2019-05-14T09:46:19.381Z,99967.83
2019-05-14T09:48:48.402Z,99973.38
2019-05-14T09:51:14.499Z,99978.07
2019-05-14T09:53:41.273Z,99973.26
2019-05-14T09:56:09.144Z,99972.75
2019-05-14T09:58:38.510Z,99974.43
2019-05-14T10:01:04.487Z,99979.02
2019-05-14T10:03:30.951Z,99972.16
2019-05-14T10:05:58.954Z,99967.64
2019-05-14T10:08:28.547Z,99967.23
2019-05-14T10:10:55.071Z,99964.13
2019-05-14T10:13:21.578Z,99963.33
2019-05-14T10:15:48.672Z,99965.59
2019-05-14T10:18:15.571Z,99967.41
2019-05-14T10:20:45.785Z,99969.64
2019-05-14T10:23:10.708Z,99963.94
2019-05-14T10:25:40.208Z,99963.03
2019-05-14T10:28:08.441Z,99958.18
2019-05-14T10:30:34.288Z,99956.72
2019-05-14T10:33:09.624Z,99951.73
2019-05-14T10:35:30.491Z,99952.48
2019-05-14T10:37:59.822Z,99957.34
2019-05-14T10:40:25.384Z,99950.27
2019-05-14T10:42:51.861Z,99953.88
2019-05-14T10:45:18.830Z,99949.02
2019-05-14T10:47:45.523Z,99943.78
2019-05-14T10:50:13.943Z,99933.92
2019-05-14T10:52:41.043Z,99934.28
2019-05-14T10:55:08.106Z,99930.39
2019-05-14T10:57:34.850Z,99934.98
2019-05-14T11:00:02.739Z,99934.63
2019-05-14T11:02:29.460Z,99932.98
2019-05-14T11:04:58.537Z,99941.08
2019-05-14T11:07:24.331Z,99941.19
2019-05-14T11:09:50.849Z,99946.00
2019-05-14T11:12:19.315Z,99938.97
2019-05-14T11:14:46.079Z,99943.34
2019-05-14T11:17:12.545Z,99930.97
2019-05-14T11:19:39.304Z,99930.77
2019-05-14T11:22:08.483Z,99925.30
2019-05-14T11:24:34.957Z,99925.03
2019-05-14T11:27:01.536Z,99911.58
2019-05-14T11:29:29.574Z,99931.00
2019-05-14T11:31:56.501Z,99917.37
2019-05-14T11:34:23.296Z,99918.90
2019-05-14T11:36:50.010Z,99913.67
2019-05-14T11:39:18.118Z,99914.05
2019-05-14T11:41:44.941Z,99903.42
2019-05-14T11:44:11.404Z,99890.57
2019-05-14T11:46:46.928Z,99889.48
2019-05-14T11:49:08.808Z,99881.43
2019-05-14T11:51:58.723Z,99886.78
2019-05-14T11:54:05.296Z,99885.84
2019-05-14T11:56:32.024Z,99883.00
2019-05-14T11:58:59.530Z,99878.59
2019-05-14T12:01:29.623Z,99866.09
2019-05-14T12:03:59.557Z,99868.85
2019-05-14T12:06:24.477Z,99872.61
2019-05-14T12:08:50.982Z,99869.41
2019-05-14T12:11:19.160Z,99878.31
2019-05-14T12:13:48.483Z,99877.61
2019-05-14T12:16:14.455Z,99879.98
2019-05-14T12:18:41.774Z,99875.70
2019-05-14T12:21:09.726Z,99869.36
2019-05-14T12:23:36.290Z,99865.52
2019-05-14T12:26:02.805Z,99859.55
2019-05-14T12:28:29.404Z,99843.77
2019-05-14T12:30:58.103Z,99838.63
2019-05-14T12:33:24.614Z,99842.80
2019-05-14T12:35:51.061Z,99835.64
2019-05-14T12:38:18.780Z,99836.16
2019-05-14T12:40:45.395Z,99830.15
2019-05-14T12:43:11.853Z,99824.02
2019-05-14T12:45:39.451Z,99812.31
2019-05-14T12:48:09.148Z,99819.58
2019-05-14T12:50:34.940Z,99813.09
2019-05-14T12:53:01.445Z,99806.69
2019-05-14T12:55:28.636Z,99804.74
2019-05-14T12:57:59.475Z,99802.54
2019-05-14T13:00:24.818Z,99794.41
2019-05-14T13:02:51.340Z,99795.19
2019-05-14T13:05:18.432Z,99796.45
2019-05-14T13:07:45.117Z,99791.77
2019-05-14T13:10:11.879Z,99797.70
2019-05-14T13:12:39.324Z,99795.47
2019-05-14T13:15:08.752Z,99788.36
2019-05-14T13:17:35.408Z,99784.06
2019-05-14T13:20:02.206Z,99781.17
2019-05-14T13:22:41.502Z,99786.94
2019-05-14T13:25:01.882Z,99781.73
2019-05-14T13:27:28.848Z,99771.13
2019-05-14T13:29:55.444Z,99773.52
2019-05-14T13:32:22.415Z,99770.88
2019-05-14T13:34:48.920Z,99770.14
2019-05-14T13:37:15.481Z,99763.63
2019-05-14T13:39:41.984Z,99762.44
2019-05-14T13:42:11.911Z,99755.75
2019-05-14T13:44:38.548Z,99752.21
2019-05-14T13:47:05.360Z,99755.86
2019-05-14T13:49:31.850Z,99740.42
2019-05-14T13:51:58.603Z,99744.30
2019-05-14T13:54:25.067Z,99757.30
2019-05-14T13:56:51.535Z,99750.66
2019-05-14T13:59:18.763Z,99741.78
2019-05-14T14:01:48.473Z,99736.33
2019-05-14T14:04:15.146Z,99745.02
2019-05-14T14:06:41.799Z,99741.58
2019-05-14T14:09:12.445Z,99732.91
2019-05-14T14:11:38.327Z,99737.66
2019-05-14T14:14:05.021Z,99736.27
2019-05-14T14:16:32.683Z,99733.55
2019-05-14T14:19:03.529Z,99731.95
2019-05-14T14:21:30.144Z,99724.59
2019-05-14T14:23:56.231Z,99721.33
2019-05-14T14:26:23.050Z,99712.02
2019-05-14T14:28:49.805Z,99715.47
2019-05-14T14:31:18.653Z,99704.09
2019-05-14T14:33:44.652Z,99706.80
2019-05-14T14:36:11.372Z,99702.41
2019-05-14T14:38:40.272Z,99710.21
2019-05-14T14:41:09.758Z,99718.92
2019-05-14T14:43:34.991Z,99701.09
2019-05-14T14:46:05.903Z,99700.70
2019-05-14T14:48:30.724Z,99704.50
2019-05-14T14:50:58.596Z,99707.01
2019-05-14T14:53:41.301Z,99711.71
2019-05-14T14:55:53.616Z,99704.94
2019-05-14T14:58:20.367Z,99711.20
2019-05-14T15:00:48.781Z,99705.48
2019-05-14T15:03:15.545Z,99709.44
2019-05-14T15:05:42.146Z,99703.94
2019-05-14T15:08:10.344Z,99702.59
2019-05-14T15:10:39.545Z,99697.97
2019-05-14T15:13:05.615Z,99697.92
2019-05-14T15:15:33.213Z,99698.30
2019-05-14T15:17:59.989Z,99691.83
2019-05-14T15:20:28.952Z,99696.12
2019-05-14T15:22:55.306Z,99698.77
2019-05-14T15:25:22.081Z,99698.75
2019-05-14T15:27:49.130Z,99695.07
2019-05-14T15:30:16.038Z,99677.30
2019-05-14T15:32:42.507Z,99686.69
2019-05-14T15:35:10.622Z,99682.27
2019-05-14T15:37:42.245Z,99683.80
2019-05-14T15:40:07.697Z,99686.95
2019-05-14T15:42:34.166Z,99680.98
2019-05-14T15:45:01.183Z,99685.05
2019-05-14T15:47:29.677Z,99684.30
2019-05-14T15:49:56.066Z,99675.48
2019-05-14T15:52:22.586Z,99677.62
2019-05-14T15:54:50.628Z,99666.16
2019-05-14T15:57:19.243Z,99666.53
2019-05-14T15:59:46.142Z,99654.20
2019-05-14T16:02:12.936Z,99664.05
2019-05-14T16:04:39.384Z,99656.76
2019-05-14T16:07:09.280Z,99651.09
2019-05-14T16:09:35.481Z,99649.17
2019-05-14T16:12:01.986Z,99644.94
2019-05-14T16:14:30.042Z,99640.68
2019-05-14T16:16:56.905Z,99633.70
2019-05-14T16:19:23.378Z,99630.31
2019-05-14T16:21:49.968Z,99634.89
2019-05-14T16:24:20.064Z,99640.53
2019-05-14T16:26:45.066Z,99651.13
2019-05-14T16:29:11.575Z,99649.02
2019-05-14T16:31:43.235Z,99645.41
2019-05-14T16:34:09.822Z,99647.18
2019-05-14T16:36:40.939Z,99647.48
2019-05-14T16:39:05.231Z,99642.56
2019-05-14T16:41:31.926Z,99645.60
2019-05-14T16:43:58.762Z,99646.52
2019-05-14T16:46:25.345Z,99646.84
2019-05-14T16:48:51.804Z,99652.67
2019-05-14T16:51:19.391Z,99645.15
2019-05-14T16:53:48.632Z,99648.69
2019-05-14T16:56:14.991Z,99651.83
2019-05-14T16:58:41.921Z,99648.91
2019-05-14T17:01:09.935Z,99663.05
2019-05-14T17:03:39.702Z,99655.06
2019-05-14T17:06:06.127Z,99651.70
2019-05-14T17:08:32.820Z,99657.98
2019-05-14T17:10:59.517Z,99650.59
2019-05-14T17:13:28.426Z,99650.66
2019-05-14T17:15:54.480Z,99654.62
2019-05-14T17:18:21.027Z,99658.59
2019-05-14T17:20:48.846Z,99660.34
2019-05-14T17:23:15.597Z,99657.72
2019-05-14T17:25:42.354Z,99654.73
2019-05-14T17:28:08.889Z,99653.46
2019-05-14T17:30:35.414Z,99657.39
2019-05-14T17:33:02.130Z,99649.04
2019-05-14T17:35:29.807Z,99650.35
2019-05-14T17:37:58.590Z,99644.27
2019-05-14T17:40:25.116Z,99643.81
2019-05-14T17:42:51.770Z,99644.70
2019-05-14T17:45:18.686Z,99645.57
2019-05-14T17:47:45.154Z,99642.98
2019-05-14T17:50:11.833Z,99639.89
2019-05-14T17:52:43.687Z,99645.58
2019-05-14T17:55:12.194Z,99647.77
2019-05-14T17:57:44.316Z,99649.45
2019-05-14T18:00:05.539Z,99643.72
2019-05-14T18:02:32.483Z,99652.50
2019-05-14T18:04:59.645Z,99642.42
2019-05-14T18:07:28.571Z,99635.94
2019-05-14T18:09:55.514Z,99638.55
2019-05-14T18:12:22.001Z,99635.93
2019-05-14T18:14:48.515Z,99632.85
2019-05-14T18:17:15.238Z,99636.78
2019-05-14T18:19:41.763Z,99639.44
2019-05-14T18:22:08.915Z,99646.00
2019-05-14T18:24:35.557Z,99631.61
2019-05-14T18:27:02.426Z,99629.42
2019-05-14T18:29:29.957Z,99640.83
2019-05-14T18:32:00.961Z,99636.89
2019-05-14T18:34:25.048Z,99634.73
2019-05-14T18:36:51.722Z,99634.30
2019-05-14T18:39:21.031Z,99633.45
2019-05-14T18:41:49.859Z,99633.45
2019-05-14T18:44:18.947Z,99635.23
2019-05-14T18:46:50.250Z,99636.98
2019-05-14T18:49:19.494Z,99633.02
2019-05-14T18:51:46.776Z,99633.92
2019-05-14T18:54:13.466Z,99634.33
2019-05-14T18:56:40.105Z,99641.34
2019-05-14T18:59:08.756Z,99640.01
2019-05-14T19:01:35.030Z,99638.26
2019-05-14T19:04:02.087Z,99639.55
2019-05-14T19:06:28.668Z,99637.78
2019-05-14T19:08:55.980Z,99639.95
2019-05-14T19:11:23.606Z,99649.09
2019-05-14T19:13:50.182Z,99651.66
2019-05-14T19:16:16.814Z,99647.23
2019-05-14T19:18:43.437Z,99649.34
2019-05-14T19:21:11.044Z,99648.86
2019-05-14T19:23:38.415Z,99656.63
2019-05-14T19:26:05.950Z,99657.02
2019-05-14T19:28:33.359Z,99657.02
2019-05-14T19:30:59.855Z,99655.17
2019-05-14T19:33:28.525Z,99655.11
2019-05-14T19:35:54.958Z,99656.81
2019-05-14T19:38:22.680Z,99649.83
2019-05-14T19:40:49.190Z,99654.61
2019-05-14T19:43:16.198Z,99655.42
2019-05-14T19:45:43.149Z,99653.62
2019-05-14T19:48:09.719Z,99651.89
2019-05-14T19:50:38.524Z,99656.25
2019-05-14T19:53:04.866Z,99652.75
2019-05-14T19:55:31.358Z,99661.84
2019-05-14T19:57:58.474Z,99657.33
2019-05-14T20:00:25.494Z,99660.73
2019-05-14T20:02:52.286Z,99662.48
2019-05-14T20:05:19.132Z,99655.89
2019-05-14T20:07:45.774Z,99661.98
2019-05-14T20:10:12.923Z,99666.23
2019-05-14T20:12:39.691Z,99662.69
2019-05-14T20:15:06.382Z,99661.80
2019-05-14T20:17:32.937Z,99662.53
2019-05-14T20:19:59.466Z,99662.31
2019-05-14T20:22:28.284Z,99658.20
2019-05-14T20:24:55.455Z,99665.37
2019-05-14T20:27:21.918Z,99655.89
2019-05-14T20:29:48.753Z,99664.67
2019-05-14T20:32:15.661Z,99660.44
2019-05-14T20:34:42.538Z,99656.61
2019-05-14T20:37:10.082Z,99654.25
2019-05-14T20:39:39.116Z,99647.14
2019-05-14T20:42:05.803Z,99649.16
2019-05-14T20:44:32.309Z,99648.84
2019-05-14T20:46:58.898Z,99646.14
2019-05-14T20:49:25.411Z,99644.84
2019-05-14T20:51:51.916Z,99639.05
2019-05-14T20:54:18.901Z,99645.48
2019-05-14T20:56:45.506Z,99644.41
2019-05-14T20:59:12.010Z,99646.41
2019-05-14T21:01:38.855Z,99645.06
2019-05-14T21:04:05.510Z,99641.89
2019-05-14T21:06:33.089Z,99646.17
2019-05-14T21:08:59.880Z,99645.30
2019-05-14T21:11:28.733Z,99649.48
2019-05-14T21:13:58.176Z,99650.99
2019-05-14T21:16:24.704Z,99651.44
2019-05-14T21:18:51.276Z,99640.11
2019-05-14T21:21:18.555Z,99646.12
2019-05-14T21:23:45.241Z,99637.22
2019-05-14T21:26:11.823Z,99636.19
2019-05-14T21:28:39.308Z,99645.33
2019-05-14T21:31:10.217Z,99640.63
2019-05-14T21:33:35.528Z,99636.25
2019-05-14T21:36:02.651Z,99635.80
2019-05-14T21:38:29.322Z,99637.38
2019-05-14T21:40:58.138Z,99633.78
2019-05-14T21:43:25.315Z,99643.06
2019-05-14T21:45:51.813Z,99641.31
2019-05-14T21:48:19.938Z,99636.06
2019-05-14T21:50:46.889Z,99637.48
2019-05-14T21:53:13.440Z,99638.72
2019-05-14T21:55:39.914Z,99639.86
2019-05-14T21:58:09.190Z,99635.06
2019-05-14T22:00:42.167Z,99638.74
2019-05-14T22:03:10.272Z,99639.09
2019-05-14T22:05:36.259Z,99630.16
2019-05-14T22:08:03.078Z,99633.18
2019-05-14T22:10:29.851Z,99631.72
2019-05-14T22:12:58.308Z,99637.59
2019-05-14T22:15:25.137Z,99635.75
2019-05-14T22:17:51.744Z,99624.61
2019-05-14T22:20:19.163Z,99630.53
2019-05-14T22:22:48.203Z,99627.98
2019-05-14T22:25:14.278Z,99623.88
2019-05-14T22:27:41.117Z,99631.62
2019-05-14T22:30:11.513Z,99623.52
2019-05-14T22:32:38.483Z,99625.05
2019-05-14T22:35:08.491Z,99623.89
2019-05-14T22:37:34.516Z,99620.75
2019-05-14T22:40:01.587Z,99619.25
2019-05-14T22:42:28.323Z,99616.36
2019-05-14T22:44:55.352Z,99619.34
2019-05-14T22:47:21.889Z,99610.09
2019-05-14T22:49:48.535Z,99616.88
2019-05-14T22:52:14.988Z,99611.91
2019-05-14T22:54:41.760Z,99612.05
2019-05-14T22:57:08.262Z,99611.04
2019-05-14T22:59:34.697Z,99610.61
2019-05-14T23:02:01.199Z,99610.38
2019-05-14T23:04:28.963Z,99611.56
2019-05-14T23:06:55.537Z,99619.03
2019-05-14T23:09:26.344Z,99615.98
2019-05-14T23:11:52.819Z,99617.73
2019-05-14T23:14:19.373Z,99612.72
2019-05-14T23:16:45.819Z,99613.63
2019-05-14T23:19:12.322Z,99617.88
2019-05-14T23:21:39.255Z,99612.02
2019-05-14T23:24:05.972Z,99616.19
2019-05-14T23:26:32.483Z,99611.84
2019-05-14T23:28:58.931Z,99610.78
2019-05-14T23:31:25.436Z,99607.59
2019-05-14T23:33:52.004Z,99609.52
2019-05-14T23:36:18.486Z,99606.15
2019-05-14T23:38:45.035Z,99610.49
2019-05-14T23:41:11.536Z,99608.67
2019-05-14T23:43:39.157Z,99603.91
2019-05-14T23:46:06.220Z,99600.86
2019-05-14T23:48:32.719Z,99609.02
2019-05-14T23:50:59.194Z,99601.62
2019-05-14T23:53:25.681Z,99600.84
2019-05-14T23:55:52.198Z,99600.91
2019-05-14T23:58:20.565Z,99592.22
